Middlefield, Ohio
Current Conditions -  °F | °C
As of 4:45 PM on Sunday 21 Dec 2014 (Local Time) from KCGF Reporting Station
Haze Haze  
Wind Chill: 24°   Ceiling: 2500
Heat Index: 32°   Visibility: 6mi
Dew Point: 23°   Wind: 9mph
Humidity: 69%   Direction: 180°S
Pressure: 30.26"   Gusts: NA
Location:  41.46°N, 81.07°W
Report Text: KCGF 212145Z 18008KT 6SM HZ OVC025 00/M05 A3026
Loading
Personal Weather Stations






























Interactive Weather Map New forecast layout! Learn more

10-Day Weather Forecast

Advertisements
Track Severe Weather on mobile